Time;durP1;ratioP1;P1;durP2;ratioP2;P2;SDS_P1;SDS_P2;PMS_P1;PMS_P2;Temp;Humidity;BMP_temperature;BMP_pressure;BME280_temperature;BME280_humidity;BME280_pressure;Samples;Min_cycle;Max_cycle;Signal;HPM_P1;HPM_P2
2021/03/27 00:00:20;;;;;;;2.97;1.75;;;25.30;38.30;;;;;;5084237;28;20036;-63
2021/03/27 00:02:52;;;;;;;3.50;1.92;;;25.30;38.20;;;;;;5083348;28;20090;-63
2021/03/27 00:05:29;;;;;;;2.88;1.88;;;25.30;38.80;;;;;;5083714;28;20073;-61
2021/03/27 00:08:07;;;;;;;3.80;2.00;;;25.30;38.30;;;;;;5084061;28;20111;-62
2021/03/27 00:10:49;;;;;;;2.78;1.80;;;25.30;38.30;;;;;;5086634;28;20097;-64
2021/03/27 00:13:39;;;;;;;3.00;1.80;;;25.30;38.30;;;;;;5085840;28;20019;-61
2021/03/27 00:16:20;;;;;;;4.20;2.25;;;25.30;38.40;;;;;;5069910;28;20079;-62
2021/03/27 00:19:09;;;;;;;3.35;1.90;;;25.20;38.20;;;;;;5071374;28;20032;-63
2021/03/27 00:21:37;;;;;;;;;;;25.20;38.20;;;;;;5086861;28;20058;-63
2021/03/27 00:24:12;;;;;;;4.22;1.85;;;25.20;38.30;;;;;;5072013;28;20377;-62
2021/03/27 00:26:46;;;;;;;2.70;1.52;;;25.20;38.40;;;;;;5075945;28;20455;-62
2021/03/27 00:29:25;;;;;;;3.83;1.90;;;25.20;38.30;;;;;;5077442;28;20040;-62
2021/03/27 00:31:57;;;;;;;3.35;2.00;;;25.20;38.30;;;;;;5084618;28;20495;-62
2021/03/27 00:34:30;;;;;;;2.72;1.67;;;25.20;38.30;;;;;;5078485;28;20033;-63
2021/03/27 00:37:00;;;;;;;3.55;2.00;;;25.20;38.30;;;;;;5046947;28;20382;-63
2021/03/27 00:39:54;;;;;;;3.75;2.08;;;25.10;38.30;;;;;;5076532;28;20139;-61
2021/03/27 00:42:28;;;;;;;2.28;1.60;;;25.10;38.30;;;;;;5065201;28;20032;-61
2021/03/27 00:45:02;;;;;;;3.88;1.85;;;25.10;38.20;;;;;;5078743;28;20020;-62
2021/03/27 00:47:31;;;;;;;3.97;2.05;;;25.10;38.30;;;;;;5076326;28;20082;-61
2021/03/27 00:50:19;;;;;;;3.00;1.90;;;25.10;38.30;;;;;;5063770;28;20036;-63
2021/03/27 00:52:50;;;;;;;3.80;1.77;;;25.10;38.30;;;;;;5075719;28;20028;-61
2021/03/27 00:55:22;;;;;;;3.42;1.98;;;25.10;38.30;;;;;;5072765;28;20271;-61
2021/03/27 00:58:03;;;;;;;2.78;1.70;;;25.10;38.30;;;;;;5071235;28;20552;-63
2021/03/27 01:00:39;;;;;;;3.28;1.70;;;25.10;38.30;;;;;;5082529;28;20040;-62
2021/03/27 01:03:13;;;;;;;3.25;1.77;;;25.10;38.30;;;;;;5084778;28;20095;-62
2021/03/27 01:05:40;;;;;;;3.03;1.88;;;25.10;38.40;;;;;;5066367;28;20139;-62
2021/03/27 01:08:09;;;;;;;3.10;1.80;;;25.10;38.30;;;;;;5083703;28;20026;-61
2021/03/27 01:10:46;;;;;;;3.00;1.92;;;25.10;38.40;;;;;;5086668;28;20024;-61
2021/03/27 01:13:16;;;;;;;3.30;1.90;;;25.00;38.30;;;;;;5084905;28;20039;-63
2021/03/27 01:15:43;;;;;;;;;;;25.00;38.80;;;;;;5066517;28;20513;-61
2021/03/27 01:18:16;;;;;;;2.60;1.80;;;25.00;38.30;;;;;;5074678;28;20705;-62
2021/03/27 01:20:47;;;;;;;2.72;1.52;;;25.00;38.40;;;;;;5075505;28;20027;-64
2021/03/27 01:23:13;;;;;;;4.38;1.88;;;25.00;38.40;;;;;;5083599;28;20024;-62
2021/03/27 01:25:40;;;;;;;3.15;1.70;;;25.00;38.30;;;;;;5068547;28;20039;-63
2021/03/27 01:28:08;;;;;;;3.05;1.80;;;25.00;38.30;;;;;;5065726;28;20414;-63
2021/03/27 01:30:37;;;;;;;2.87;1.80;;;25.00;38.30;;;;;;5085204;28;20055;-62
2021/03/27 01:33:21;;;;;;;3.10;1.73;;;25.00;38.40;;;;;;5083776;28;20043;-63
2021/03/27 01:36:10;;;;;;;3.20;1.70;;;25.00;38.30;;;;;;5064270;28;20037;-62
2021/03/27 01:38:47;;;;;;;2.97;1.83;;;25.00;38.40;;;;;;5063166;28;20409;-61
2021/03/27 01:41:35;;;;;;;3.13;1.88;;;24.90;38.30;;;;;;5085466;28;20210;-62
2021/03/27 01:44:45;;;;;;;3.08;1.90;;;24.90;38.30;;;;;;5083761;28;20074;-63
2021/03/27 01:47:17;;;;;;;2.78;1.92;;;25.00;38.40;;;;;;5071879;28;20031;-61
2021/03/27 01:50:06;;;;;;;2.55;1.63;;;24.90;38.30;;;;;;5067597;28;20645;-61
2021/03/27 01:52:56;;;;;;;2.60;1.60;;;24.90;38.30;;;;;;5084643;28;20028;-63
2021/03/27 01:55:43;;;;;;;2.78;1.70;;;24.90;38.30;;;;;;5075500;28;20044;-62
2021/03/27 01:58:46;;;;;;;3.30;1.85;;;24.90;38.40;;;;;;5082581;28;20107;-63
2021/03/27 02:01:18;;;;;;;2.35;1.42;;;24.90;38.40;;;;;;5024043;28;20592;-62
2021/03/27 02:04:00;;;;;;;2.80;1.85;;;24.90;38.40;;;;;;5083758;28;20027;-62
2021/03/27 02:06:55;;;;;;;2.78;1.67;;;24.90;38.40;;;;;;5078662;28;20165;-63
2021/03/27 02:09:33;;;;;;;2.92;1.70;;;24.80;38.30;;;;;;5052934;28;20040;-61
2021/03/27 02:12:05;;;;;;;3.17;1.85;;;24.90;38.40;;;;;;5064283;28;20090;-63
2021/03/27 02:14:33;;;;;;;2.97;1.80;;;24.90;38.40;;;;;;5071343;28;20086;-62
2021/03/27 02:17:19;;;;;;;3.03;1.67;;;24.80;38.40;;;;;;5062185;28;20036;-61
2021/03/27 02:20:03;;;;;;;3.03;1.67;;;24.80;38.40;;;;;;5081223;28;20142;-63
2021/03/27 02:22:38;;;;;;;2.80;1.60;;;24.80;38.40;;;;;;5075286;28;20374;-61
2021/03/27 02:25:22;;;;;;;3.03;1.65;;;24.80;38.40;;;;;;5065712;28;20320;-62
2021/03/27 02:27:59;;;;;;;3.03;1.70;;;24.80;38.40;;;;;;5064320;28;20104;-61
2021/03/27 02:30:28;;;;;;;2.85;1.75;;;24.80;38.40;;;;;;5078848;28;20040;-62
2021/03/27 02:33:12;;;;;;;2.70;1.60;;;24.80;38.40;;;;;;5083800;28;20020;-62
2021/03/27 02:35:49;;;;;;;2.15;1.27;;;24.80;38.50;;;;;;5078649;28;20103;-62
2021/03/27 02:38:27;;;;;;;2.95;1.70;;;24.80;38.40;;;;;;5065535;28;20028;-62
2021/03/27 02:41:17;;;;;;;2.78;1.60;;;24.80;38.40;;;;;;5066704;28;20024;-63
2021/03/27 02:43:49;;;;;;;2.75;1.52;;;24.80;38.50;;;;;;5082908;28;20089;-62
2021/03/27 02:46:39;;;;;;;3.08;1.60;;;24.80;38.50;;;;;;5078108;28;20222;-62
2021/03/27 02:49:57;;;;;;;2.08;1.50;;;24.80;38.50;;;;;;5086761;28;20198;-62
2021/03/27 02:52:29;;;;;;;2.40;1.40;;;24.80;38.50;;;;;;5062663;28;20045;-63
2021/03/27 02:55:26;;;;;;;2.63;1.67;;;24.80;38.60;;;;;;5080344;28;20778;-63
2021/03/27 02:58:29;;;;;;;2.88;1.60;;;24.70;38.50;;;;;;5074618;28;20040;-64
2021/03/27 03:01:17;;;;;;;3.40;1.80;;;24.80;38.60;;;;;;5071245;28;20054;-63
2021/03/27 03:04:06;;;;;;;2.53;1.67;;;24.70;38.50;;;;;;5086613;28;20097;-64
2021/03/27 03:06:53;;;;;;;1.90;1.42;;;24.70;38.50;;;;;;5073032;28;20020;-62
2021/03/27 03:09:24;;;;;;;2.55;1.65;;;24.70;38.50;;;;;;5068060;28;20017;-62
2021/03/27 03:11:56;;;;;;;2.17;1.40;;;24.70;38.50;;;;;;5071592;28;20029;-62
2021/03/27 03:14:38;;;;;;;2.35;1.45;;;24.70;38.60;;;;;;5061356;28;20033;-63
2021/03/27 03:17:27;;;;;;;2.80;1.63;;;24.70;38.60;;;;;;5048322;28;20047;-62
2021/03/27 03:20:30;;;;;;;2.00;1.40;;;24.70;38.60;;;;;;5084126;28;20032;-62
2021/03/27 03:23:06;;;;;;;2.40;1.58;;;24.70;38.60;;;;;;5082764;28;20036;-63
2021/03/27 03:25:36;;;;;;;2.28;1.40;;;24.70;38.60;;;;;;5062144;28;20024;-63
2021/03/27 03:28:49;;;;;;;2.20;1.40;;;24.70;38.60;;;;;;5082619;28;20016;-63
2021/03/27 03:31:38;;;;;;;3.03;1.65;;;24.60;38.60;;;;;;5021453;28;20033;-62
2021/03/27 03:34:13;;;;;;;2.40;1.52;;;24.70;38.70;;;;;;5018651;28;20085;-61
2021/03/27 03:37:13;;;;;;;2.42;1.52;;;24.70;38.70;;;;;;5052840;28;20040;-63
2021/03/27 03:40:01;;;;;;;2.72;1.52;;;24.60;38.60;;;;;;4998304;28;20119;-63
2021/03/27 03:43:04;;;;;;;2.75;1.40;;;24.60;38.60;;;;;;5052585;28;20094;-64
2021/03/27 03:45:33;;;;;;;1.73;1.20;;;24.60;38.70;;;;;;5071635;28;20067;-63
2021/03/27 03:48:07;;;;;;;2.60;1.60;;;24.60;38.70;;;;;;5073440;28;20036;-63
2021/03/27 03:50:51;;;;;;;2.42;1.52;;;24.60;38.70;;;;;;5087075;28;20090;-63
2021/03/27 03:53:49;;;;;;;2.45;1.50;;;24.60;38.60;;;;;;5073703;28;20032;-64
2021/03/27 03:56:26;;;;;;;2.15;1.30;;;24.60;38.70;;;;;;5064867;28;20114;-63
2021/03/27 03:59:19;;;;;;;2.75;1.58;;;24.60;38.70;;;;;;5065954;28;20024;-63
2021/03/27 04:02:02;;;;;;;2.13;1.30;;;24.60;38.70;;;;;;5077104;28;20028;-63
2021/03/27 04:04:46;;;;;;;2.63;1.52;;;24.60;38.70;;;;;;5082498;28;20034;-62
2021/03/27 04:07:18;;;;;;;2.40;1.40;;;24.60;38.70;;;;;;5073377;28;20450;-63
2021/03/27 04:10:03;;;;;;;2.20;1.42;;;24.60;38.70;;;;;;5086098;28;20031;-64
2021/03/27 04:12:54;;;;;;;2.40;1.70;;;24.60;39.20;;;;;;5070858;28;20035;-62
2021/03/27 04:15:41;;;;;;;2.35;1.40;;;24.60;38.70;;;;;;5071729;28;20478;-62
2021/03/27 04:18:23;;;;;;;2.17;1.40;;;24.60;38.80;;;;;;5065186;28;20443;-62
2021/03/27 04:21:13;;;;;;;1.95;1.35;;;24.50;38.60;;;;;;5070762;28;20028;-63
2021/03/27 04:24:01;;;;;;;2.40;1.45;;;24.60;38.80;;;;;;5084944;28;20366;-62
2021/03/27 04:26:36;;;;;;;2.25;1.40;;;24.60;38.70;;;;;;5074984;28;20047;-62
2021/03/27 04:29:29;;;;;;;2.25;1.40;;;24.50;38.70;;;;;;5065228;28;20139;-63
2021/03/27 04:32:32;;;;;;;2.33;1.40;;;24.50;38.70;;;;;;5073436;28;20342;-64
2021/03/27 04:35:33;;;;;;;2.25;1.40;;;24.50;38.70;;;;;;5059520;28;20798;-63
2021/03/27 04:38:11;;;;;;;2.55;1.67;;;24.50;38.70;;;;;;5085320;28;20057;-63
2021/03/27 04:40:56;;;;;;;2.30;1.33;;;24.50;38.70;;;;;;5085787;28;20036;-63
2021/03/27 04:43:22;;;;;;;2.10;1.30;;;24.50;38.80;;;;;;5087140;28;20024;-63
2021/03/27 04:46:19;;;;;;;1.88;1.30;;;24.50;38.70;;;;;;5068442;28;20083;-64
2021/03/27 04:48:55;;;;;;;1.70;1.27;;;24.50;39.30;;;;;;5060902;28;20046;-63
2021/03/27 04:51:31;;;;;;;1.85;1.40;;;24.50;39.30;;;;;;5084929;28;20465;-63
2021/03/27 04:54:12;;;;;;;2.25;1.30;;;24.50;38.80;;;;;;5081555;28;20098;-62
2021/03/27 04:57:07;;;;;;;1.95;1.20;;;24.50;38.80;;;;;;5074408;28;20346;-63
2021/03/27 04:59:57;;;;;;;2.30;1.40;;;24.50;38.70;;;;;;5065208;28;20032;-61
2021/03/27 05:03:03;;;;;;;2.25;1.40;;;24.50;38.70;;;;;;5081516;28;20036;-62
2021/03/27 05:05:54;;;;;;;2.03;1.30;;;24.50;38.80;;;;;;5001630;28;20042;-62
2021/03/27 05:08:44;;;;;;;2.78;1.40;;;24.50;38.80;;;;;;5004166;28;20049;-64
2021/03/27 05:11:41;;;;;;;2.10;1.40;;;24.50;38.80;;;;;;5069240;28;20076;-62
2021/03/27 05:14:34;;;;;;;1.95;1.30;;;24.40;38.70;;;;;;5064513;28;20043;-63
2021/03/27 05:17:20;;;;;;;2.03;1.35;;;24.40;38.90;;;;;;5077413;28;20032;-62
2021/03/27 05:20:16;;;;;;;2.22;1.30;;;24.40;38.70;;;;;;5064870;28;20032;-63
2021/03/27 05:22:45;;;;;;;1.92;1.30;;;24.40;38.80;;;;;;5076182;28;20429;-64
2021/03/27 05:25:49;;;;;;;1.83;1.20;;;24.40;38.80;;;;;;5064961;28;20062;-62
2021/03/27 05:28:24;;;;;;;1.90;1.20;;;24.40;38.80;;;;;;4973078;28;20146;-62
2021/03/27 05:31:37;;;;;;;1.58;1.10;;;24.40;38.80;;;;;;5066065;28;20028;-64
2021/03/27 05:34:33;;;;;;;1.85;1.35;;;24.40;38.80;;;;;;5019429;28;20055;-63
2021/03/27 05:37:19;;;;;;;1.77;1.30;;;24.40;38.80;;;;;;5083912;28;20062;-63
2021/03/27 05:39:56;;;;;;;1.70;1.10;;;24.40;38.90;;;;;;5065224;28;20063;-62
2021/03/27 05:42:33;;;;;;;1.80;1.10;;;24.40;38.80;;;;;;5064702;28;20383;-63
2021/03/27 05:45:16;;;;;;;2.30;1.20;;;24.40;38.90;;;;;;5069159;28;20025;-63
2021/03/27 05:48:39;;;;;;;1.92;1.30;;;24.40;38.90;;;;;;5081232;28;20028;-62
2021/03/27 05:51:40;;;;;;;1.95;1.20;;;24.40;38.90;;;;;;5020077;28;20128;-63
2021/03/27 05:54:24;;;;;;;1.80;1.20;;;24.40;38.80;;;;;;4980240;28;20057;-63
2021/03/27 05:57:11;;;;;;;1.60;1.10;;;24.40;38.80;;;;;;5075439;28;20170;-63
2021/03/27 06:00:16;;;;;;;2.65;1.20;;;24.40;38.80;;;;;;5077645;28;20060;-64
2021/03/27 06:03:11;;;;;;;1.70;1.13;;;24.30;38.80;;;;;;5078979;28;20036;-62
2021/03/27 06:06:14;;;;;;;1.50;1.08;;;24.30;38.80;;;;;;5040189;28;20063;-64
2021/03/27 06:08:45;;;;;;;1.67;1.02;;;24.30;38.70;;;;;;5079562;28;20085;-63
2021/03/27 06:11:32;;;;;;;1.70;1.08;;;24.30;38.80;;;;;;5070125;28;20805;-63
2021/03/27 06:14:42;;;;;;;1.65;1.05;;;24.30;38.80;;;;;;5080883;28;20679;-62
2021/03/27 06:17:38;;;;;;;1.88;1.33;;;24.30;38.80;;;;;;5062730;28;20040;-63
2021/03/27 06:20:13;;;;;;;2.03;1.38;;;24.30;38.80;;;;;;5067489;28;20028;-63
2021/03/27 06:23:10;;;;;;;2.08;1.17;;;24.30;38.80;;;;;;5084001;28;20031;-63
2021/03/27 06:25:36;;;;;;;1.80;1.10;;;24.30;38.70;;;;;;5084965;28;20032;-63
2021/03/27 06:28:24;;;;;;;2.15;1.15;;;24.30;38.80;;;;;;5071345;28;20098;-64
2021/03/27 06:31:19;;;;;;;1.85;1.13;;;24.30;38.80;;;;;;5075297;28;20033;-64
2021/03/27 06:34:34;;;;;;;2.25;1.20;;;24.30;38.80;;;;;;5087402;28;20035;-62
2021/03/27 06:37:09;;;;;;;1.85;1.10;;;24.30;38.70;;;;;;5061905;28;20474;-63
2021/03/27 06:39:49;;;;;;;2.17;1.20;;;24.30;38.70;;;;;;5087451;28;20036;-62
2021/03/27 06:42:43;;;;;;;2.13;1.30;;;24.30;38.80;;;;;;5087807;28;20028;-63
2021/03/27 06:45:36;;;;;;;1.63;1.20;;;24.30;38.70;;;;;;5076995;28;20159;-64
2021/03/27 06:48:13;;;;;;;1.83;1.10;;;24.30;38.70;;;;;;5070724;28;20485;-62
2021/03/27 06:51:13;;;;;;;1.77;1.00;;;24.30;38.70;;;;;;5087928;28;20028;-62
2021/03/27 06:54:03;;;;;;;2.00;1.20;;;24.30;38.70;;;;;;5067974;28;20056;-62
2021/03/27 06:56:58;;;;;;;2.15;1.00;;;24.30;38.60;;;;;;5074237;28;20067;-62
2021/03/27 06:59:32;;;;;;;1.88;1.23;;;24.30;38.60;;;;;;5086843;28;20028;-62
2021/03/27 07:02:10;;;;;;;1.80;1.10;;;24.30;38.60;;;;;;5066709;28;20089;-62
2021/03/27 07:05:04;;;;;;;2.35;1.30;;;24.30;38.60;;;;;;5079892;28;20027;-63
2021/03/27 07:07:35;;;;;;;1.90;1.20;;;24.30;38.60;;;;;;5073627;28;20038;-62
2021/03/27 07:10:28;;;;;;;1.40;1.00;;;24.30;38.60;;;;;;5052886;28;20027;-63
2021/03/27 07:13:02;;;;;;;1.85;1.08;;;24.30;38.60;;;;;;5081908;28;20643;-62
2021/03/27 07:15:40;;;;;;;1.40;1.00;;;24.30;38.60;;;;;;5078756;28;20032;-63
2021/03/27 07:18:21;;;;;;;1.52;0.90;;;24.30;38.60;;;;;;5081667;28;20031;-63
2021/03/27 07:21:05;;;;;;;1.67;1.00;;;24.30;38.60;;;;;;5083921;28;20035;-64
2021/03/27 07:24:00;;;;;;;1.15;0.80;;;24.30;38.60;;;;;;5082239;28;20924;-63
2021/03/27 07:26:45;;;;;;;1.20;0.90;;;24.30;38.50;;;;;;5077239;28;20024;-63
2021/03/27 07:29:30;;;;;;;1.45;0.93;;;24.20;38.50;;;;;;5084952;28;20053;-63
2021/03/27 07:32:43;;;;;;;1.33;0.98;;;24.20;38.50;;;;;;5085457;28;20040;-63
2021/03/27 07:35:32;;;;;;;1.65;1.10;;;24.20;38.60;;;;;;5076402;28;20043;-63
2021/03/27 07:38:22;;;;;;;1.45;0.95;;;24.20;38.60;;;;;;5081184;28;20109;-63
2021/03/27 07:41:25;;;;;;;1.75;1.05;;;24.20;38.60;;;;;;5065904;28;20363;-63
2021/03/27 07:44:12;;;;;;;1.52;0.95;;;24.20;38.70;;;;;;5068711;28;20051;-63
2021/03/27 07:47:29;;;;;;;1.55;0.90;;;24.20;38.70;;;;;;5078260;28;20056;-62
2021/03/27 07:50:15;;;;;;;1.35;1.00;;;24.20;38.60;;;;;;5053676;28;20048;-62
2021/03/27 07:53:00;;;;;;;1.70;1.10;;;24.20;38.60;;;;;;5082107;28;20024;-63
2021/03/27 07:56:12;;;;;;;1.63;0.90;;;24.20;38.70;;;;;;5082304;28;20024;-61
2021/03/27 07:58:37;;;;;;;1.25;0.90;;;24.20;38.80;;;;;;5066538;28;20024;-62
2021/03/27 08:01:30;;;;;;;1.63;1.00;;;24.20;38.90;;;;;;5085216;28;20496;-63
2021/03/27 08:04:13;;;;;;;1.70;1.20;;;24.20;38.90;;;;;;5080292;28;20023;-63
2021/03/27 08:06:48;;;;;;;2.10;1.00;;;24.20;38.90;;;;;;5066183;28;20033;-64
2021/03/27 08:09:56;;;;;;;1.80;1.00;;;24.20;38.90;;;;;;5084571;28;20850;-62
2021/03/27 08:12:30;;;;;;;2.08;0.90;;;24.20;38.90;;;;;;5078894;28;20516;-61
2021/03/27 08:15:24;;;;;;;1.95;0.82;;;24.20;38.90;;;;;;5076847;28;20066;-63
2021/03/27 08:18:02;;;;;;;1.63;1.00;;;24.20;39.00;;;;;;5078457;28;20474;-63
2021/03/27 08:20:31;;;;;;;1.42;0.90;;;24.20;38.90;;;;;;5085694;28;20044;-62
2021/03/27 08:23:11;;;;;;;1.02;0.80;;;24.20;38.90;;;;;;5083231;28;20056;-63
2021/03/27 08:26:14;;;;;;;1.10;0.70;;;24.20;38.90;;;;;;5072918;28;20031;-62
2021/03/27 08:29:30;;;;;;;1.17;0.90;;;24.20;38.90;;;;;;5083526;28;20036;-63
2021/03/27 08:32:15;;;;;;;1.27;0.70;;;24.20;38.90;;;;;;5016461;28;20040;-63
2021/03/27 08:35:03;;;;;;;1.38;1.00;;;24.20;38.80;;;;;;5071088;28;20463;-63
2021/03/27 08:37:40;;;;;;;1.98;1.00;;;24.20;38.90;;;;;;5081105;28;20028;-62
2021/03/27 08:40:29;;;;;;;1.55;0.93;;;24.20;38.80;;;;;;5084351;28;20039;-63
2021/03/27 08:43:22;;;;;;;1.65;0.90;;;24.10;38.70;;;;;;5083184;28;20916;-62
2021/03/27 08:46:02;;;;;;;1.50;0.80;;;24.10;38.70;;;;;;5053263;28;20090;-64
2021/03/27 08:49:02;;;;;;;1.85;0.90;;;24.20;38.70;;;;;;5059392;28;20020;-63
2021/03/27 08:51:32;;;;;;;0.90;0.70;;;24.10;38.60;;;;;;5085347;28;20438;-63
2021/03/27 08:54:56;;;;;;;1.15;0.88;;;24.20;38.70;;;;;;5081846;28;20103;-63
2021/03/27 08:58:03;;;;;;;1.00;0.75;;;24.20;38.60;;;;;;5057397;28;20062;-63
2021/03/27 09:00:38;;;;;;;1.55;0.73;;;24.10;38.60;;;;;;5079620;28;20071;-63
2021/03/27 09:03:38;;;;;;;1.85;0.90;;;24.10;38.60;;;;;;5060516;28;20032;-63
2021/03/27 09:06:39;;;;;;;1.08;0.70;;;24.10;38.60;;;;;;5062270;28;20109;-62
2021/03/27 09:09:34;;;;;;;1.33;0.70;;;24.20;38.60;;;;;;5076605;28;20092;-64
2021/03/27 09:12:22;;;;;;;0.68;0.60;;;24.20;38.60;;;;;;5077749;28;20036;-63
2021/03/27 09:15:13;;;;;;;1.25;0.68;;;24.20;38.60;;;;;;5057710;28;20482;-63
2021/03/27 09:18:09;;;;;;;0.98;0.75;;;24.20;38.60;;;;;;5058836;28;20028;-64
2021/03/27 09:21:07;;;;;;;1.10;0.70;;;24.20;38.60;;;;;;5076134;28;20077;-62
2021/03/27 09:23:56;;;;;;;1.88;0.85;;;24.20;38.60;;;;;;5059676;28;20063;-62
2021/03/27 09:26:44;;;;;;;1.50;0.98;;;24.20;38.60;;;;;;5062925;28;20090;-62
2021/03/27 09:29:35;;;;;;;1.38;0.80;;;24.20;38.70;;;;;;5069726;28;20739;-62
2021/03/27 09:32:12;;;;;;;1.02;0.73;;;24.20;38.70;;;;;;5081275;28;20043;-62
2021/03/27 09:35:16;;;;;;;1.38;0.70;;;24.20;38.70;;;;;;5068677;28;20450;-63
2021/03/27 09:38:00;;;;;;;1.23;0.60;;;24.20;38.70;;;;;;5077105;28;20020;-63
2021/03/27 09:40:47;;;;;;;1.40;0.75;;;24.20;38.70;;;;;;5079847;28;20110;-63
2021/03/27 09:43:42;;;;;;;1.50;0.63;;;24.20;38.80;;;;;;5077246;28;20043;-64
2021/03/27 09:46:44;;;;;;;0.95;0.65;;;24.20;38.90;;;;;;5081697;28;20111;-64
2021/03/27 09:49:49;;;;;;;1.15;0.60;;;24.20;38.90;;;;;;5077278;28;20111;-62
2021/03/27 09:52:35;;;;;;;1.30;0.70;;;24.20;38.90;;;;;;5076765;28;20810;-63
2021/03/27 09:55:32;;;;;;;0.77;0.50;;;24.20;39.00;;;;;;5080844;28;20031;-63
2021/03/27 09:58:18;;;;;;;2.38;0.80;;;24.30;38.90;;;;;;5081072;28;20070;-63
2021/03/27 10:01:10;;;;;;;1.83;0.75;;;24.20;38.50;;;;;;5082630;28;20074;-63
2021/03/27 10:03:46;;;;;;;0.80;0.60;;;24.20;38.10;;;;;;5085381;28;20028;-63
2021/03/27 10:06:42;;;;;;;0.95;0.60;;;24.20;37.60;;;;;;5085639;28;20027;-62
2021/03/27 10:09:35;;;;;;;1.10;0.60;;;24.20;37.20;;;;;;5085425;28;20032;-63
2021/03/27 10:12:26;;;;;;;0.77;0.50;;;24.20;36.90;;;;;;5084821;28;20032;-64
2021/03/27 10:15:15;;;;;;;0.43;0.43;;;24.20;36.90;;;;;;5084050;28;20043;-63
2021/03/27 10:17:46;;;;;;;1.08;0.50;;;24.20;36.70;;;;;;5079375;28;20039;-63
2021/03/27 10:20:34;;;;;;;1.70;0.60;;;24.20;36.70;;;;;;5080532;28;20055;-64
2021/03/27 10:23:22;;;;;;;1.30;0.50;;;24.20;36.40;;;;;;5085025;28;20103;-62
2021/03/27 10:26:12;;;;;;;0.77;0.60;;;24.20;36.60;;;;;;5078819;28;20038;-62
2021/03/27 10:28:46;;;;;;;1.08;0.70;;;24.20;36.60;;;;;;5072228;28;20885;-60
2021/03/27 10:31:28;;;;;;;0.88;0.68;;;24.10;36.90;;;;;;5082898;28;20028;-61
2021/03/27 10:34:11;;;;;;;0.80;0.60;;;24.20;37.10;;;;;;5075836;28;20027;-62
2021/03/27 10:36:46;;;;;;;1.30;0.70;;;24.20;37.20;;;;;;5085260;28;20119;-63
2021/03/27 10:39:26;;;;;;;1.08;0.60;;;24.20;37.20;;;;;;5084996;28;20451;-62
2021/03/27 10:42:16;;;;;;;2.53;0.50;;;24.30;37.40;;;;;;5083848;28;20067;-62
2021/03/27 10:44:51;;;;;;;0.75;0.70;;;24.30;37.50;;;;;;5072323;28;20029;-63
2021/03/27 10:47:29;;;;;;;0.50;0.50;;;24.30;37.50;;;;;;5071570;28;20020;-63
2021/03/27 10:50:02;;;;;;;2.00;0.63;;;24.30;37.50;;;;;;5090352;28;20036;-64
2021/03/27 10:52:33;;;;;;;0.95;0.65;;;24.30;37.50;;;;;;5083814;28;20055;-62
2021/03/27 10:55:01;;;;;;;1.65;0.55;;;24.40;37.70;;;;;;5077867;28;20032;-62
2021/03/27 10:57:54;;;;;;;0.73;0.45;;;24.40;37.70;;;;;;5051621;28;20128;-60
2021/03/27 11:00:52;;;;;;;1.90;0.60;;;24.50;37.80;;;;;;5077725;28;20541;-61
2021/03/27 11:03:26;;;;;;;0.50;0.50;;;24.50;37.80;;;;;;5074670;28;20727;-56
2021/03/27 11:06:29;;;;;;;1.00;0.50;;;24.40;37.80;;;;;;5071038;28;20024;-60
2021/03/27 11:09:04;;;;;;;0.55;0.50;;;24.50;37.90;;;;;;5079022;28;20047;-58
2021/03/27 11:11:54;;;;;;;1.00;0.50;;;24.50;37.90;;;;;;5075861;28;20075;-61
2021/03/27 11:14:23;;;;;;;1.48;0.70;;;24.60;38.00;;;;;;5053830;28;20024;-62
2021/03/27 11:17:20;;;;;;;1.52;0.60;;;24.60;38.00;;;;;;5082386;28;20028;-61
2021/03/27 11:20:27;;;;;;;2.20;0.50;;;24.60;38.00;;;;;;5078553;28;20126;-61
2021/03/27 11:23:21;;;;;;;1.45;0.50;;;24.60;38.00;;;;;;5079550;28;20040;-60
2021/03/27 11:26:05;;;;;;;0.85;0.55;;;24.60;38.00;;;;;;5078672;28;20022;-61
2021/03/27 11:28:43;;;;;;;1.83;0.80;;;24.70;38.20;;;;;;5079578;28;20107;-62
2021/03/27 11:31:14;;;;;;;0.57;0.50;;;24.70;38.10;;;;;;5079152;28;20044;-63
2021/03/27 11:34:02;;;;;;;1.55;0.60;;;24.70;38.10;;;;;;5079415;28;20030;-62
2021/03/27 11:36:36;;;;;;;0.85;0.55;;;24.70;38.10;;;;;;5075057;28;20038;-62
2021/03/27 11:39:12;;;;;;;1.08;0.40;;;24.80;38.10;;;;;;5076355;28;20109;-63
2021/03/27 11:42:14;;;;;;;1.10;0.50;;;24.80;38.10;;;;;;5083002;28;20603;-62
2021/03/27 11:45:02;;;;;;;1.23;0.60;;;24.80;38.10;;;;;;5068654;28;20602;-62
2021/03/27 11:47:46;;;;;;;0.70;0.50;;;24.80;38.10;;;;;;5080982;28;20474;-62
2021/03/27 11:50:40;;;;;;;1.58;0.60;;;24.80;38.10;;;;;;5082559;28;20106;-62
2021/03/27 11:53:24;;;;;;;0.52;0.50;;;24.80;38.10;;;;;;5076329;28;20027;-63
2021/03/27 11:56:30;;;;;;;0.75;0.40;;;24.80;38.10;;;;;;5078273;28;20071;-60
2021/03/27 12:02:04;;;;;;;0.88;0.57;;;24.80;38.10;;;;;;5083272;28;20101;-63
2021/03/27 12:05:12;;;;;;;0.85;0.50;;;24.80;38.10;;;;;;5083181;28;20135;-62
2021/03/27 12:08:13;;;;;;;1.23;0.60;;;24.80;38.20;;;;;;5078863;28;20046;-60
2021/03/27 12:11:03;;;;;;;1.40;0.50;;;24.80;38.20;;;;;;5054502;28;20032;-61
2021/03/27 12:13:41;;;;;;;1.08;0.55;;;24.80;38.20;;;;;;5062535;28;20405;-61
2021/03/27 12:16:15;;;;;;;1.42;0.40;;;24.80;38.10;;;;;;5075539;28;20114;-61
2021/03/27 12:19:00;;;;;;;1.23;0.50;;;24.80;38.10;;;;;;5080962;28;20039;-61
2021/03/27 12:21:47;;;;;;;0.50;0.40;;;24.90;38.10;;;;;;5071829;28;20032;-61
2021/03/27 12:24:13;;;;;;;2.97;0.52;;;24.80;38.10;;;;;;5078114;28;20588;-63
2021/03/27 12:27:14;;;;;;;2.03;0.50;;;24.80;38.10;;;;;;5073776;28;20039;-62
2021/03/27 12:29:45;;;;;;;0.80;0.43;;;24.80;38.00;;;;;;5082470;28;20702;-63
2021/03/27 12:32:29;;;;;;;0.60;0.50;;;24.80;38.00;;;;;;5057064;28;20486;-62
2021/03/27 12:35:18;;;;;;;0.98;0.40;;;24.80;38.00;;;;;;5076244;28;20669;-63
2021/03/27 12:38:00;;;;;;;0.80;0.40;;;24.80;38.00;;;;;;5082146;28;20035;-63
2021/03/27 12:40:31;;;;;;;0.50;0.40;;;24.80;38.00;;;;;;5081016;28;20112;-62
2021/03/27 12:43:05;;;;;;;0.75;0.40;;;24.90;38.10;;;;;;5079521;28;20028;-62
2021/03/27 12:45:41;;;;;;;1.20;0.52;;;24.80;38.00;;;;;;5060896;28;20543;-63
2021/03/27 12:48:20;;;;;;;1.13;0.60;;;24.80;38.00;;;;;;5065296;28;20502;-62
2021/03/27 12:51:04;;;;;;;1.27;0.47;;;24.80;38.00;;;;;;5078968;28;20507;-63
2021/03/27 12:53:49;;;;;;;0.93;0.60;;;24.80;38.00;;;;;;5078575;28;20940;-61
2021/03/27 12:56:49;;;;;;;1.23;0.50;;;24.80;38.00;;;;;;5076809;28;20078;-62
2021/03/27 12:59:33;;;;;;;1.92;0.40;;;24.80;38.00;;;;;;5074038;28;20032;-62
2021/03/27 13:02:17;;;;;;;0.70;0.47;;;24.80;38.00;;;;;;5076016;28;20032;-62
2021/03/27 13:04:51;;;;;;;1.00;0.40;;;24.80;38.00;;;;;;5077289;28;20069;-61
2021/03/27 13:07:38;;;;;;;0.40;0.40;;;24.80;38.00;;;;;;5068336;28;20665;-63
2021/03/27 13:10:29;;;;;;;0.50;0.50;;;24.80;37.90;;;;;;5084037;28;20383;-61
2021/03/27 13:13:16;;;;;;;1.13;0.60;;;24.80;38.00;;;;;;5064508;28;20052;-63
2021/03/27 13:15:53;;;;;;;0.50;0.40;;;24.80;37.90;;;;;;5075025;28;20130;-62
2021/03/27 13:18:26;;;;;;;0.85;0.60;;;24.80;38.00;;;;;;5063806;28;20060;-62
2021/03/27 13:21:15;;;;;;;1.08;0.63;;;24.80;37.90;;;;;;5082754;28;20036;-63
2021/03/27 13:23:46;;;;;;;1.27;0.45;;;24.80;38.50;;;;;;5081521;28;20028;-63
2021/03/27 13:26:26;;;;;;;0.63;0.47;;;24.80;38.00;;;;;;5084182;28;20032;-61
2021/03/27 13:29:01;;;;;;;1.58;0.43;;;24.80;38.00;;;;;;5060829;28;20028;-62
2021/03/27 13:31:39;;;;;;;0.65;0.50;;;24.80;38.00;;;;;;5074099;28;20497;-61
2021/03/27 13:34:16;;;;;;;1.00;0.45;;;24.80;38.00;;;;;;5075675;28;20393;-61
2021/03/27 13:37:00;;;;;;;0.98;0.57;;;24.80;37.90;;;;;;5060819;28;20024;-64
2021/03/27 13:39:39;;;;;;;5.57;0.60;;;24.80;37.90;;;;;;5079218;28;20458;-61
2021/03/27 13:42:23;;;;;;;0.50;0.50;;;24.80;37.90;;;;;;5081330;28;20024;-63
2021/03/27 13:45:00;;;;;;;1.05;0.50;;;24.80;37.90;;;;;;5074879;28;20971;-62
2021/03/27 13:47:43;;;;;;;0.52;0.40;;;24.80;38.00;;;;;;5080695;28;20027;-62
2021/03/27 13:50:26;;;;;;;1.27;0.60;;;24.80;38.00;;;;;;5081784;28;20032;-61
2021/03/27 13:53:26;;;;;;;1.48;0.50;;;24.70;38.00;;;;;;5078490;28;20028;-62
2021/03/27 13:56:28;;;;;;;0.73;0.38;;;24.70;37.90;;;;;;5072373;28;20033;-62
2021/03/27 13:59:19;;;;;;;0.40;0.40;;;24.70;37.90;;;;;;5069720;28;20086;-62
2021/03/27 14:01:50;;;;;;;1.40;0.47;;;24.70;38.00;;;;;;5074747;28;20032;-61
2021/03/27 14:04:29;;;;;;;0.90;0.47;;;24.70;38.00;;;;;;5058641;28;20032;-61
2021/03/27 14:07:12;;;;;;;0.80;0.50;;;24.70;38.00;;;;;;5075259;28;20039;-62
2021/03/27 14:09:58;;;;;;;0.88;0.40;;;24.80;38.10;;;;;;5074154;28;20047;-62
2021/03/27 14:12:26;;;;;;;0.40;0.40;;;24.70;38.10;;;;;;5078033;28;20432;-63
2021/03/27 14:15:01;;;;;;;0.80;0.50;;;24.80;38.20;;;;;;5071713;28;20054;-62
2021/03/27 14:18:04;;;;;;;1.30;0.60;;;24.80;38.20;;;;;;5074525;28;20134;-62
2021/03/27 14:21:04;;;;;;;1.85;0.50;;;24.70;38.20;;;;;;5057938;28;20178;-61
2021/03/27 14:24:07;;;;;;;1.17;0.60;;;24.70;38.20;;;;;;5074078;28;20031;-63